sensor_id;sensor_type;location;lat;lon;timestamp;temperature;humidity
40848;DHT22;26570;50.962;5.340;2023-05-07T00:02:48;14.70;99.90
40848;DHT22;26570;50.962;5.340;2023-05-07T00:06:46;14.80;99.90
40848;DHT22;26570;50.962;5.340;2023-05-07T00:14:34;14.80;99.90
40848;DHT22;26570;50.962;5.340;2023-05-07T00:18:39;14.80;99.90
40848;DHT22;26570;50.962;5.340;2023-05-07T00:22:40;14.80;99.90
40848;DHT22;26570;50.962;5.340;2023-05-07T00:29:45;14.90;99.90
40848;DHT22;26570;50.962;5.340;2023-05-07T00:36:50;15.00;99.90
40848;DHT22;26570;50.962;5.340;2023-05-07T00:44:47;15.00;99.90
40848;DHT22;26570;50.962;5.340;2023-05-07T00:48:07;14.90;99.90
40848;DHT22;26570;50.962;5.340;2023-05-07T01:04:18;15.00;99.90
40848;DHT22;26570;50.962;5.340;2023-05-07T01:16:26;15.30;99.90
40848;DHT22;26570;50.962;5.340;2023-05-07T01:24:20;14.90;99.90
40848;DHT22;26570;50.962;5.340;2023-05-07T01:31:54;15.10;99.90
40848;DHT22;26570;50.962;5.340;2023-05-07T01:35:52;15.10;99.90
40848;DHT22;26570;50.962;5.340;2023-05-07T01:39:57;15.60;99.90
40848;DHT22;26570;50.962;5.340;2023-05-07T01:43:18;15.10;99.90
40848;DHT22;26570;50.962;5.340;2023-05-07T01:47:09;15.10;99.90
40848;DHT22;26570;50.962;5.340;2023-05-07T01:51:27;15.10;99.90
40848;DHT22;26570;50.962;5.340;2023-05-07T01:59:12;14.90;99.90
40848;DHT22;26570;50.962;5.340;2023-05-07T02:02:52;14.90;99.90
40848;DHT22;26570;50.962;5.340;2023-05-07T02:10:15;15.00;99.90
40848;DHT22;26570;50.962;5.340;2023-05-07T02:13:13;15.00;99.90
40848;DHT22;26570;50.962;5.340;2023-05-07T02:17:13;15.00;99.90
40848;DHT22;26570;50.962;5.340;2023-05-07T02:20:47;15.00;99.90
40848;DHT22;26570;50.962;5.340;2023-05-07T02:24:16;15.00;99.90
40848;DHT22;26570;50.962;5.340;2023-05-07T02:27:42;14.90;99.90
40848;DHT22;26570;50.962;5.340;2023-05-07T02:35:43;15.10;99.90
40848;DHT22;26570;50.962;5.340;2023-05-07T02:43:09;15.00;99.90
40848;DHT22;26570;50.962;5.340;2023-05-07T02:47:03;15.10;99.90
40848;DHT22;26570;50.962;5.340;2023-05-07T02:50:43;15.20;99.90
40848;DHT22;26570;50.962;5.340;2023-05-07T02:59:00;15.00;99.90
40848;DHT22;26570;50.962;5.340;2023-05-07T03:06:17;14.90;99.90
40848;DHT22;26570;50.962;5.340;2023-05-07T03:13:52;14.90;99.90
40848;DHT22;26570;50.962;5.340;2023-05-07T03:33:06;14.80;99.90
40848;DHT22;26570;50.962;5.340;2023-05-07T03:37:10;14.90;99.90
40848;DHT22;26570;50.962;5.340;2023-05-07T03:48:32;14.80;99.90
40848;DHT22;26570;50.962;5.340;2023-05-07T03:51:57;14.80;99.90
40848;DHT22;26570;50.962;5.340;2023-05-07T03:55:33;14.70;99.90
40848;DHT22;26570;50.962;5.340;2023-05-07T04:02:56;14.90;99.90
40848;DHT22;26570;50.962;5.340;2023-05-07T04:13:56;14.90;99.90
40848;DHT22;26570;50.962;5.340;2023-05-07T04:21:49;15.10;99.90
40848;DHT22;26570;50.962;5.340;2023-05-07T04:29:34;15.30;99.90
40848;DHT22;26570;50.962;5.340;2023-05-07T04:33:13;15.20;99.90
40848;DHT22;26570;50.962;5.340;2023-05-07T04:37:04;15.10;99.90
40848;DHT22;26570;50.962;5.340;2023-05-07T04:47:17;15.10;99.90
40848;DHT22;26570;50.962;5.340;2023-05-07T04:50:27;15.10;99.90
40848;DHT22;26570;50.962;5.340;2023-05-07T05:01:37;15.20;99.90
40848;DHT22;26570;50.962;5.340;2023-05-07T05:05:28;15.20;99.90
40848;DHT22;26570;50.962;5.340;2023-05-07T05:09:11;15.40;99.90
40848;DHT22;26570;50.962;5.340;2023-05-07T05:20:07;15.90;99.90
40848;DHT22;26570;50.962;5.340;2023-05-07T05:23:46;15.80;99.90
40848;DHT22;26570;50.962;5.340;2023-05-07T05:27:18;16.00;99.90
40848;DHT22;26570;50.962;5.340;2023-05-07T05:30:38;16.10;99.90
40848;DHT22;26570;50.962;5.340;2023-05-07T05:38:09;16.50;99.90
40848;DHT22;26570;50.962;5.340;2023-05-07T05:41:00;16.60;99.90
40848;DHT22;26570;50.962;5.340;2023-05-07T05:43:52;16.70;99.90
40848;DHT22;26570;50.962;5.340;2023-05-07T05:46:46;16.80;99.90
40848;DHT22;26570;50.962;5.340;2023-05-07T05:49:45;16.90;99.90
40848;DHT22;26570;50.962;5.340;2023-05-07T05:52:37;17.10;99.90
40848;DHT22;26570;50.962;5.340;2023-05-07T05:55:27;17.10;99.90
40848;DHT22;26570;50.962;5.340;2023-05-07T05:58:27;17.50;99.90
40848;DHT22;26570;50.962;5.340;2023-05-07T06:01:17;17.60;99.90
40848;DHT22;26570;50.962;5.340;2023-05-07T06:04:07;17.90;99.90
40848;DHT22;26570;50.962;5.340;2023-05-07T06:07:24;17.90;99.90
40848;DHT22;26570;50.962;5.340;2023-05-07T06:10:30;18.00;99.90
40848;DHT22;26570;50.962;5.340;2023-05-07T06:13:22;18.00;99.90
40848;DHT22;26570;50.962;5.340;2023-05-07T06:16:15;18.10;99.90
40848;DHT22;26570;50.962;5.340;2023-05-07T06:19:06;18.20;99.90
40848;DHT22;26570;50.962;5.340;2023-05-07T06:22:00;18.30;99.90
40848;DHT22;26570;50.962;5.340;2023-05-07T06:25:08;18.40;99.90
40848;DHT22;26570;50.962;5.340;2023-05-07T06:28:00;18.50;99.90
40848;DHT22;26570;50.962;5.340;2023-05-07T06:30:54;18.40;99.90
40848;DHT22;26570;50.962;5.340;2023-05-07T06:33:44;18.80;99.90
40848;DHT22;26570;50.962;5.340;2023-05-07T06:36:36;18.90;99.90
40848;DHT22;26570;50.962;5.340;2023-05-07T06:39:27;19.00;99.90
40848;DHT22;26570;50.962;5.340;2023-05-07T06:42:21;19.30;99.90
40848;DHT22;26570;50.962;5.340;2023-05-07T06:45:11;19.60;99.90
40848;DHT22;26570;50.962;5.340;2023-05-07T06:48:08;19.50;99.90
40848;DHT22;26570;50.962;5.340;2023-05-07T06:51:27;19.60;99.90
40848;DHT22;26570;50.962;5.340;2023-05-07T06:54:23;19.80;99.90
40848;DHT22;26570;50.962;5.340;2023-05-07T06:57:23;19.80;99.90
40848;DHT22;26570;50.962;5.340;2023-05-07T07:01:04;20.00;99.90
40848;DHT22;26570;50.962;5.340;2023-05-07T07:04:31;20.00;99.90
40848;DHT22;26570;50.962;5.340;2023-05-07T07:07:26;19.80;99.90
40848;DHT22;26570;50.962;5.340;2023-05-07T07:10:16;20.00;99.90
40848;DHT22;26570;50.962;5.340;2023-05-07T07:13:30;20.20;99.90
40848;DHT22;26570;50.962;5.340;2023-05-07T07:16:28;20.20;99.90
40848;DHT22;26570;50.962;5.340;2023-05-07T07:19:19;20.40;99.90
40848;DHT22;26570;50.962;5.340;2023-05-07T07:22:31;20.60;99.90
40848;DHT22;26570;50.962;5.340;2023-05-07T07:25:30;20.80;99.90
40848;DHT22;26570;50.962;5.340;2023-05-07T07:28:21;20.80;99.90
40848;DHT22;26570;50.962;5.340;2023-05-07T07:31:35;21.30;99.90
40848;DHT22;26570;50.962;5.340;2023-05-07T07:34:49;21.20;99.90
40848;DHT22;26570;50.962;5.340;2023-05-07T07:38:16;21.10;99.90
40848;DHT22;26570;50.962;5.340;2023-05-07T07:41:39;20.80;99.90
40848;DHT22;26570;50.962;5.340;2023-05-07T07:44:34;20.90;99.90
40848;DHT22;26570;50.962;5.340;2023-05-07T07:47:52;21.10;99.90
40848;DHT22;26570;50.962;5.340;2023-05-07T07:51:14;21.10;99.90
40848;DHT22;26570;50.962;5.340;2023-05-07T07:54:45;21.30;99.90
40848;DHT22;26570;50.962;5.340;2023-05-07T07:58:12;21.40;99.90
40848;DHT22;26570;50.962;5.340;2023-05-07T08:01:12;21.50;99.90
40848;DHT22;26570;50.962;5.340;2023-05-07T08:04:12;21.70;99.90
40848;DHT22;26570;50.962;5.340;2023-05-07T08:07:29;21.70;99.90
40848;DHT22;26570;50.962;5.340;2023-05-07T08:10:32;22.10;99.90
40848;DHT22;26570;50.962;5.340;2023-05-07T08:13:32;22.30;99.90
40848;DHT22;26570;50.962;5.340;2023-05-07T08:16:35;22.60;99.90
40848;DHT22;26570;50.962;5.340;2023-05-07T08:19:28;22.90;99.90
40848;DHT22;26570;50.962;5.340;2023-05-07T08:22:27;24.40;99.90
40848;DHT22;26570;50.962;5.340;2023-05-07T08:25:17;24.70;99.90
40848;DHT22;26570;50.962;5.340;2023-05-07T08:28:59;24.30;99.90
40848;DHT22;26570;50.962;5.340;2023-05-07T08:32:04;24.00;99.90
40848;DHT22;26570;50.962;5.340;2023-05-07T08:34:53;23.50;99.90
40848;DHT22;26570;50.962;5.340;2023-05-07T08:37:42;23.40;99.90
40848;DHT22;26570;50.962;5.340;2023-05-07T08:40:29;23.30;99.90
40848;DHT22;26570;50.962;5.340;2023-05-07T08:43:51;23.40;99.90
40848;DHT22;26570;50.962;5.340;2023-05-07T08:46:42;23.90;99.90
40848;DHT22;26570;50.962;5.340;2023-05-07T08:49:41;24.20;99.90
40848;DHT22;26570;50.962;5.340;2023-05-07T08:52:44;24.00;99.90
40848;DHT22;26570;50.962;5.340;2023-05-07T08:55:48;24.20;99.90
40848;DHT22;26570;50.962;5.340;2023-05-07T08:58:47;23.90;99.90
40848;DHT22;26570;50.962;5.340;2023-05-07T09:01:45;23.90;99.90
40848;DHT22;26570;50.962;5.340;2023-05-07T09:04:36;23.90;99.90
40848;DHT22;26570;50.962;5.340;2023-05-07T09:08:07;23.90;99.90
40848;DHT22;26570;50.962;5.340;2023-05-07T09:11:31;23.70;99.90
40848;DHT22;26570;50.962;5.340;2023-05-07T09:14:27;24.00;99.90
40848;DHT22;26570;50.962;5.340;2023-05-07T09:17:18;24.40;99.90
40848;DHT22;26570;50.962;5.340;2023-05-07T09:20:09;24.90;99.90
40848;DHT22;26570;50.962;5.340;2023-05-07T09:23:34;25.00;99.90
40848;DHT22;26570;50.962;5.340;2023-05-07T09:26:36;25.10;99.90
40848;DHT22;26570;50.962;5.340;2023-05-07T09:32:46;24.70;99.90
40848;DHT22;26570;50.962;5.340;2023-05-07T09:36:19;25.00;99.90
40848;DHT22;26570;50.962;5.340;2023-05-07T09:39:48;25.60;99.90
40848;DHT22;26570;50.962;5.340;2023-05-07T09:43:19;25.60;99.90
40848;DHT22;26570;50.962;5.340;2023-05-07T09:46:14;25.70;99.90
40848;DHT22;26570;50.962;5.340;2023-05-07T09:49:34;25.80;99.90
40848;DHT22;26570;50.962;5.340;2023-05-07T09:52:42;26.10;99.90
40848;DHT22;26570;50.962;5.340;2023-05-07T09:56:05;26.00;99.90
40848;DHT22;26570;50.962;5.340;2023-05-07T09:59:19;26.20;99.90
40848;DHT22;26570;50.962;5.340;2023-05-07T10:02:18;26.00;99.90
40848;DHT22;26570;50.962;5.340;2023-05-07T10:05:10;25.60;99.90
40848;DHT22;26570;50.962;5.340;2023-05-07T10:08:10;25.20;99.90
40848;DHT22;26570;50.962;5.340;2023-05-07T10:11:10;25.40;99.90
40848;DHT22;26570;50.962;5.340;2023-05-07T10:14:34;24.60;99.90
40848;DHT22;26570;50.962;5.340;2023-05-07T10:17:47;24.50;99.90
40848;DHT22;26570;50.962;5.340;2023-05-07T10:21:08;24.30;99.90
40848;DHT22;26570;50.962;5.340;2023-05-07T10:24:00;24.20;99.90
40848;DHT22;26570;50.962;5.340;2023-05-07T10:27:29;23.90;99.90
40848;DHT22;26570;50.962;5.340;2023-05-07T10:33:51;23.70;99.90
40848;DHT22;26570;50.962;5.340;2023-05-07T10:36:50;23.80;99.90
40848;DHT22;26570;50.962;5.340;2023-05-07T10:40:24;23.60;99.90
40848;DHT22;26570;50.962;5.340;2023-05-07T10:44:03;23.20;99.90
40848;DHT22;26570;50.962;5.340;2023-05-07T10:47:14;22.70;99.90
40848;DHT22;26570;50.962;5.340;2023-05-07T10:53:39;22.10;99.90
40848;DHT22;26570;50.962;5.340;2023-05-07T10:56:52;22.10;99.90
40848;DHT22;26570;50.962;5.340;2023-05-07T10:59:43;22.40;99.90
40848;DHT22;26570;50.962;5.340;2023-05-07T11:03:14;22.50;99.90
40848;DHT22;26570;50.962;5.340;2023-05-07T11:16:19;22.30;99.90
40848;DHT22;26570;50.962;5.340;2023-05-07T11:19:52;22.00;99.90
40848;DHT22;26570;50.962;5.340;2023-05-07T11:27:16;21.10;99.90
40848;DHT22;26570;50.962;5.340;2023-05-07T11:34:39;21.40;99.90
40848;DHT22;26570;50.962;5.340;2023-05-07T11:38:03;21.50;99.90
40848;DHT22;26570;50.962;5.340;2023-05-07T11:41:07;21.30;99.90
40848;DHT22;26570;50.962;5.340;2023-05-07T11:44:45;21.40;99.90
40848;DHT22;26570;50.962;5.340;2023-05-07T11:48:06;20.90;99.90
40848;DHT22;26570;50.962;5.340;2023-05-07T11:51:20;20.80;99.90
40848;DHT22;26570;50.962;5.340;2023-05-07T11:54:11;20.20;99.90
40848;DHT22;26570;50.962;5.340;2023-05-07T12:00:23;20.50;99.90
40848;DHT22;26570;50.962;5.340;2023-05-07T12:06:36;20.80;99.90
40848;DHT22;26570;50.962;5.340;2023-05-07T12:09:22;20.40;99.90
40848;DHT22;26570;50.962;5.340;2023-05-07T12:12:08;20.50;99.90
40848;DHT22;26570;50.962;5.340;2023-05-07T12:14:53;20.40;99.90
40848;DHT22;26570;50.962;5.340;2023-05-07T12:17:39;20.30;99.90
40848;DHT22;26570;50.962;5.340;2023-05-07T12:20:25;20.30;99.90
40848;DHT22;26570;50.962;5.340;2023-05-07T12:23:10;20.10;99.90
40848;DHT22;26570;50.962;5.340;2023-05-07T12:25:55;20.20;99.90
40848;DHT22;26570;50.962;5.340;2023-05-07T12:28:40;20.50;99.90
40848;DHT22;26570;50.962;5.340;2023-05-07T12:31:26;20.50;99.90
40848;DHT22;26570;50.962;5.340;2023-05-07T12:34:11;20.30;99.90
40848;DHT22;26570;50.962;5.340;2023-05-07T12:36:56;20.40;99.90
40848;DHT22;26570;50.962;5.340;2023-05-07T12:39:47;20.70;99.90
40848;DHT22;26570;50.962;5.340;2023-05-07T12:42:35;20.80;99.90
40848;DHT22;26570;50.962;5.340;2023-05-07T12:45:26;21.00;99.90
40848;DHT22;26570;50.962;5.340;2023-05-07T12:48:11;21.10;99.90
40848;DHT22;26570;50.962;5.340;2023-05-07T12:50:57;21.20;99.90
40848;DHT22;26570;50.962;5.340;2023-05-07T12:53:42;21.10;99.90
40848;DHT22;26570;50.962;5.340;2023-05-07T12:56:31;21.00;99.90
40848;DHT22;26570;50.962;5.340;2023-05-07T12:59:16;20.90;99.90
40848;DHT22;26570;50.962;5.340;2023-05-07T13:02:01;20.90;99.90
40848;DHT22;26570;50.962;5.340;2023-05-07T13:04:48;21.10;99.90
40848;DHT22;26570;50.962;5.340;2023-05-07T13:07:34;21.40;99.90
40848;DHT22;26570;50.962;5.340;2023-05-07T13:10:19;21.30;99.90
40848;DHT22;26570;50.962;5.340;2023-05-07T13:13:04;21.30;99.90
40848;DHT22;26570;50.962;5.340;2023-05-07T13:15:49;20.70;99.90
40848;DHT22;26570;50.962;5.340;2023-05-07T13:18:34;20.50;99.90
40848;DHT22;26570;50.962;5.340;2023-05-07T13:21:19;20.60;99.90
40848;DHT22;26570;50.962;5.340;2023-05-07T13:24:04;20.60;99.90
40848;DHT22;26570;50.962;5.340;2023-05-07T13:26:49;20.60;99.90
40848;DHT22;26570;50.962;5.340;2023-05-07T13:29:34;20.90;99.90
40848;DHT22;26570;50.962;5.340;2023-05-07T13:32:20;21.10;99.90
40848;DHT22;26570;50.962;5.340;2023-05-07T13:35:08;21.00;99.90
40848;DHT22;26570;50.962;5.340;2023-05-07T13:37:52;21.10;99.90
40848;DHT22;26570;50.962;5.340;2023-05-07T13:40:39;21.50;99.90
40848;DHT22;26570;50.962;5.340;2023-05-07T13:43:24;21.50;99.90
40848;DHT22;26570;50.962;5.340;2023-05-07T13:46:10;21.60;99.90
40848;DHT22;26570;50.962;5.340;2023-05-07T13:48:54;21.60;99.90
40848;DHT22;26570;50.962;5.340;2023-05-07T13:51:39;21.80;99.90
40848;DHT22;26570;50.962;5.340;2023-05-07T13:54:24;21.90;99.90
40848;DHT22;26570;50.962;5.340;2023-05-07T13:57:09;22.10;99.90
40848;DHT22;26570;50.962;5.340;2023-05-07T13:59:54;22.30;99.90
40848;DHT22;26570;50.962;5.340;2023-05-07T14:02:39;22.20;99.90
40848;DHT22;26570;50.962;5.340;2023-05-07T14:05:24;22.30;99.90
40848;DHT22;26570;50.962;5.340;2023-05-07T14:08:09;22.30;99.90
40848;DHT22;26570;50.962;5.340;2023-05-07T14:10:55;22.00;99.90
40848;DHT22;26570;50.962;5.340;2023-05-07T14:13:40;22.00;99.90
40848;DHT22;26570;50.962;5.340;2023-05-07T14:16:25;22.00;99.90
40848;DHT22;26570;50.962;5.340;2023-05-07T14:19:10;21.90;99.90
40848;DHT22;26570;50.962;5.340;2023-05-07T14:21:55;21.60;99.90
40848;DHT22;26570;50.962;5.340;2023-05-07T14:24:41;21.80;99.90
40848;DHT22;26570;50.962;5.340;2023-05-07T14:27:27;22.10;99.90
40848;DHT22;26570;50.962;5.340;2023-05-07T14:30:18;21.80;99.90
40848;DHT22;26570;50.962;5.340;2023-05-07T14:33:03;22.10;99.90
40848;DHT22;26570;50.962;5.340;2023-05-07T14:35:47;22.30;99.90
40848;DHT22;26570;50.962;5.340;2023-05-07T14:38:34;22.20;99.90
40848;DHT22;26570;50.962;5.340;2023-05-07T14:41:19;21.90;99.90
40848;DHT22;26570;50.962;5.340;2023-05-07T14:44:08;21.60;99.90
40848;DHT22;26570;50.962;5.340;2023-05-07T14:46:55;21.40;99.90
40848;DHT22;26570;50.962;5.340;2023-05-07T14:49:41;21.60;99.90
40848;DHT22;26570;50.962;5.340;2023-05-07T14:52:26;21.40;99.90
40848;DHT22;26570;50.962;5.340;2023-05-07T14:55:12;21.40;99.90
40848;DHT22;26570;50.962;5.340;2023-05-07T14:57:56;21.40;99.90
40848;DHT22;26570;50.962;5.340;2023-05-07T15:00:41;21.60;99.90
40848;DHT22;26570;50.962;5.340;2023-05-07T15:03:27;21.40;99.90
40848;DHT22;26570;50.962;5.340;2023-05-07T15:06:12;21.60;99.90
40848;DHT22;26570;50.962;5.340;2023-05-07T15:08:57;21.80;99.90
40848;DHT22;26570;50.962;5.340;2023-05-07T15:11:42;21.80;99.90
40848;DHT22;26570;50.962;5.340;2023-05-07T15:14:27;21.70;99.90
40848;DHT22;26570;50.962;5.340;2023-05-07T15:17:12;21.50;99.90
40848;DHT22;26570;50.962;5.340;2023-05-07T15:19:59;21.40;99.90
40848;DHT22;26570;50.962;5.340;2023-05-07T15:22:44;21.30;99.90
40848;DHT22;26570;50.962;5.340;2023-05-07T15:25:30;21.10;99.90
40848;DHT22;26570;50.962;5.340;2023-05-07T15:28:17;21.40;99.90
40848;DHT22;26570;50.962;5.340;2023-05-07T15:31:02;21.10;99.90
40848;DHT22;26570;50.962;5.340;2023-05-07T15:34:00;21.30;99.90
40848;DHT22;26570;50.962;5.340;2023-05-07T15:36:45;21.60;99.90
40848;DHT22;26570;50.962;5.340;2023-05-07T15:39:30;21.50;99.90
40848;DHT22;26570;50.962;5.340;2023-05-07T15:42:15;21.50;99.90
40848;DHT22;26570;50.962;5.340;2023-05-07T15:45:00;21.60;99.90
40848;DHT22;26570;50.962;5.340;2023-05-07T15:47:45;21.70;99.90
40848;DHT22;26570;50.962;5.340;2023-05-07T15:50:30;21.70;99.90
40848;DHT22;26570;50.962;5.340;2023-05-07T15:53:16;21.70;99.90
40848;DHT22;26570;50.962;5.340;2023-05-07T15:56:01;21.80;99.90
40848;DHT22;26570;50.962;5.340;2023-05-07T15:58:46;21.60;99.90
40848;DHT22;26570;50.962;5.340;2023-05-07T16:01:32;21.40;99.90
40848;DHT22;26570;50.962;5.340;2023-05-07T16:04:17;21.40;99.90
40848;DHT22;26570;50.962;5.340;2023-05-07T16:07:01;21.50;99.90
40848;DHT22;26570;50.962;5.340;2023-05-07T16:09:47;21.70;99.90
40848;DHT22;26570;50.962;5.340;2023-05-07T16:12:32;21.70;99.90
40848;DHT22;26570;50.962;5.340;2023-05-07T16:15:18;21.80;99.90
40848;DHT22;26570;50.962;5.340;2023-05-07T16:18:03;21.90;99.90
40848;DHT22;26570;50.962;5.340;2023-05-07T16:20:53;22.20;99.90
40848;DHT22;26570;50.962;5.340;2023-05-07T16:23:38;22.10;99.90
40848;DHT22;26570;50.962;5.340;2023-05-07T16:26:22;22.00;99.90
40848;DHT22;26570;50.962;5.340;2023-05-07T16:29:07;21.80;99.90
40848;DHT22;26570;50.962;5.340;2023-05-07T16:31:52;21.60;99.90
40848;DHT22;26570;50.962;5.340;2023-05-07T16:34:37;21.80;99.90
40848;DHT22;26570;50.962;5.340;2023-05-07T16:37:22;21.80;99.90
40848;DHT22;26570;50.962;5.340;2023-05-07T16:40:08;21.50;99.90
40848;DHT22;26570;50.962;5.340;2023-05-07T16:42:53;21.70;99.90
40848;DHT22;26570;50.962;5.340;2023-05-07T16:45:38;21.50;99.90
40848;DHT22;26570;50.962;5.340;2023-05-07T16:48:23;21.70;99.90
40848;DHT22;26570;50.962;5.340;2023-05-07T16:51:08;21.50;99.90
40848;DHT22;26570;50.962;5.340;2023-05-07T16:54:17;21.40;99.90
40848;DHT22;26570;50.962;5.340;2023-05-07T16:57:02;21.20;99.90
40848;DHT22;26570;50.962;5.340;2023-05-07T16:59:47;21.30;99.90
40848;DHT22;26570;50.962;5.340;2023-05-07T17:02:32;21.10;99.90
40848;DHT22;26570;50.962;5.340;2023-05-07T17:05:18;21.20;99.90
40848;DHT22;26570;50.962;5.340;2023-05-07T17:08:03;21.20;99.90
40848;DHT22;26570;50.962;5.340;2023-05-07T17:10:48;21.30;99.90
40848;DHT22;26570;50.962;5.340;2023-05-07T17:13:33;21.30;99.90
40848;DHT22;26570;50.962;5.340;2023-05-07T17:16:19;21.50;99.90
40848;DHT22;26570;50.962;5.340;2023-05-07T17:19:04;21.30;99.90
40848;DHT22;26570;50.962;5.340;2023-05-07T17:21:49;21.30;99.90
40848;DHT22;26570;50.962;5.340;2023-05-07T17:24:34;21.20;99.90
40848;DHT22;26570;50.962;5.340;2023-05-07T17:27:19;21.20;99.90
40848;DHT22;26570;50.962;5.340;2023-05-07T17:30:05;21.10;99.90
40848;DHT22;26570;50.962;5.340;2023-05-07T17:32:50;21.00;99.90
40848;DHT22;26570;50.962;5.340;2023-05-07T17:35:35;20.70;99.90
40848;DHT22;26570;50.962;5.340;2023-05-07T17:38:19;20.80;99.90
40848;DHT22;26570;50.962;5.340;2023-05-07T17:41:04;20.70;99.90
40848;DHT22;26570;50.962;5.340;2023-05-07T17:43:50;20.70;99.90
40848;DHT22;26570;50.962;5.340;2023-05-07T17:46:37;20.80;99.90
40848;DHT22;26570;50.962;5.340;2023-05-07T17:49:22;20.60;99.90
40848;DHT22;26570;50.962;5.340;2023-05-07T17:52:07;20.50;99.90
40848;DHT22;26570;50.962;5.340;2023-05-07T17:54:52;20.60;99.90
40848;DHT22;26570;50.962;5.340;2023-05-07T17:57:37;20.50;99.90
40848;DHT22;26570;50.962;5.340;2023-05-07T18:00:22;20.40;99.90
40848;DHT22;26570;50.962;5.340;2023-05-07T18:03:07;20.40;99.90
40848;DHT22;26570;50.962;5.340;2023-05-07T18:05:51;20.10;99.90
40848;DHT22;26570;50.962;5.340;2023-05-07T18:08:36;20.30;99.90
40848;DHT22;26570;50.962;5.340;2023-05-07T18:11:22;20.30;99.90
40848;DHT22;26570;50.962;5.340;2023-05-07T18:14:07;20.20;99.90
40848;DHT22;26570;50.962;5.340;2023-05-07T18:16:52;20.20;99.90
40848;DHT22;26570;50.962;5.340;2023-05-07T18:19:37;20.20;99.90
40848;DHT22;26570;50.962;5.340;2023-05-07T18:22:22;20.20;99.90
40848;DHT22;26570;50.962;5.340;2023-05-07T18:25:07;20.10;99.90
40848;DHT22;26570;50.962;5.340;2023-05-07T18:27:52;20.10;99.90
40848;DHT22;26570;50.962;5.340;2023-05-07T18:30:37;20.00;99.90
40848;DHT22;26570;50.962;5.340;2023-05-07T18:33:22;20.10;99.90
40848;DHT22;26570;50.962;5.340;2023-05-07T18:36:07;20.00;99.90
40848;DHT22;26570;50.962;5.340;2023-05-07T18:38:52;20.00;99.90
40848;DHT22;26570;50.962;5.340;2023-05-07T18:41:37;20.00;99.90
40848;DHT22;26570;50.962;5.340;2023-05-07T18:44:23;19.90;99.90
40848;DHT22;26570;50.962;5.340;2023-05-07T18:47:08;19.90;99.90
40848;DHT22;26570;50.962;5.340;2023-05-07T18:49:53;19.90;99.90
40848;DHT22;26570;50.962;5.340;2023-05-07T18:52:38;19.90;99.90
40848;DHT22;26570;50.962;5.340;2023-05-07T18:55:23;19.80;99.90
40848;DHT22;26570;50.962;5.340;2023-05-07T18:58:08;19.80;99.90
40848;DHT22;26570;50.962;5.340;2023-05-07T19:00:53;19.80;99.90
40848;DHT22;26570;50.962;5.340;2023-05-07T19:03:38;19.80;99.90
40848;DHT22;26570;50.962;5.340;2023-05-07T19:06:23;19.70;99.90
40848;DHT22;26570;50.962;5.340;2023-05-07T19:09:09;19.70;99.90
40848;DHT22;26570;50.962;5.340;2023-05-07T19:11:55;19.60;99.90
40848;DHT22;26570;50.962;5.340;2023-05-07T19:14:40;19.50;99.90
40848;DHT22;26570;50.962;5.340;2023-05-07T19:17:25;19.40;99.90
40848;DHT22;26570;50.962;5.340;2023-05-07T19:20:11;19.30;99.90
40848;DHT22;26570;50.962;5.340;2023-05-07T19:22:56;19.30;99.90
40848;DHT22;26570;50.962;5.340;2023-05-07T19:25:41;19.20;99.90
40848;DHT22;26570;50.962;5.340;2023-05-07T19:28:26;19.20;99.90
40848;DHT22;26570;50.962;5.340;2023-05-07T19:31:21;19.10;99.90
40848;DHT22;26570;50.962;5.340;2023-05-07T19:34:06;19.20;99.90
40848;DHT22;26570;50.962;5.340;2023-05-07T19:40:42;19.00;99.90
40848;DHT22;26570;50.962;5.340;2023-05-07T19:43:50;18.90;99.90
40848;DHT22;26570;50.962;5.340;2023-05-07T19:46:36;18.80;99.90
40848;DHT22;26570;50.962;5.340;2023-05-07T19:49:24;18.70;99.90
40848;DHT22;26570;50.962;5.340;2023-05-07T19:52:09;18.90;99.90
40848;DHT22;26570;50.962;5.340;2023-05-07T19:54:55;18.90;99.90
40848;DHT22;26570;50.962;5.340;2023-05-07T19:57:40;18.50;99.90
40848;DHT22;26570;50.962;5.340;2023-05-07T20:00:25;18.70;99.90
40848;DHT22;26570;50.962;5.340;2023-05-07T20:03:15;18.60;99.90
40848;DHT22;26570;50.962;5.340;2023-05-07T20:06:02;18.50;99.90
40848;DHT22;26570;50.962;5.340;2023-05-07T20:08:47;18.50;99.90
40848;DHT22;26570;50.962;5.340;2023-05-07T20:11:32;18.40;99.90
40848;DHT22;26570;50.962;5.340;2023-05-07T20:14:18;18.40;99.90
40848;DHT22;26570;50.962;5.340;2023-05-07T20:17:03;18.30;99.90
40848;DHT22;26570;50.962;5.340;2023-05-07T20:19:49;18.40;99.90
40848;DHT22;26570;50.962;5.340;2023-05-07T20:22:34;18.30;99.90
40848;DHT22;26570;50.962;5.340;2023-05-07T20:25:20;18.20;99.90
40848;DHT22;26570;50.962;5.340;2023-05-07T20:28:05;18.20;99.90
40848;DHT22;26570;50.962;5.340;2023-05-07T20:30:51;18.20;99.90
40848;DHT22;26570;50.962;5.340;2023-05-07T20:33:37;18.30;99.90
40848;DHT22;26570;50.962;5.340;2023-05-07T20:36:24;18.40;99.90
40848;DHT22;26570;50.962;5.340;2023-05-07T20:39:10;18.40;99.90
40848;DHT22;26570;50.962;5.340;2023-05-07T20:41:58;18.30;99.90
40848;DHT22;26570;50.962;5.340;2023-05-07T20:44:44;18.10;99.90
40848;DHT22;26570;50.962;5.340;2023-05-07T20:47:31;18.10;99.90
40848;DHT22;26570;50.962;5.340;2023-05-07T20:50:17;18.10;99.90
40848;DHT22;26570;50.962;5.340;2023-05-07T20:53:02;18.00;99.90
40848;DHT22;26570;50.962;5.340;2023-05-07T20:55:47;17.90;99.90
40848;DHT22;26570;50.962;5.340;2023-05-07T20:58:33;17.90;99.90
40848;DHT22;26570;50.962;5.340;2023-05-07T21:01:18;17.90;99.90
40848;DHT22;26570;50.962;5.340;2023-05-07T21:04:03;17.90;99.90
40848;DHT22;26570;50.962;5.340;2023-05-07T21:06:48;18.00;99.90
40848;DHT22;26570;50.962;5.340;2023-05-07T21:09:34;17.90;99.90
40848;DHT22;26570;50.962;5.340;2023-05-07T21:12:20;17.90;99.90
40848;DHT22;26570;50.962;5.340;2023-05-07T21:15:06;17.90;99.90
40848;DHT22;26570;50.962;5.340;2023-05-07T21:17:51;17.70;99.90
40848;DHT22;26570;50.962;5.340;2023-05-07T21:20:36;17.80;99.90
40848;DHT22;26570;50.962;5.340;2023-05-07T21:23:22;17.80;99.90
40848;DHT22;26570;50.962;5.340;2023-05-07T21:26:09;18.20;99.90
40848;DHT22;26570;50.962;5.340;2023-05-07T21:28:54;18.10;99.90
40848;DHT22;26570;50.962;5.340;2023-05-07T21:31:39;17.90;99.90
40848;DHT22;26570;50.962;5.340;2023-05-07T21:34:24;17.80;99.90
40848;DHT22;26570;50.962;5.340;2023-05-07T21:37:09;17.70;99.90
40848;DHT22;26570;50.962;5.340;2023-05-07T21:39:55;17.60;99.90
40848;DHT22;26570;50.962;5.340;2023-05-07T21:42:40;17.60;99.90
40848;DHT22;26570;50.962;5.340;2023-05-07T21:45:25;17.50;99.90
40848;DHT22;26570;50.962;5.340;2023-05-07T21:48:12;17.50;99.90
40848;DHT22;26570;50.962;5.340;2023-05-07T21:51:05;17.50;99.90
40848;DHT22;26570;50.962;5.340;2023-05-07T21:53:51;17.40;99.90